Time;durP1;ratioP1;P1;durP2;ratioP2;P2;SDS_P1;SDS_P2;PMS_P1;PMS_P2;Temp;Humidity;BMP_temperature;BMP_pressure;BME280_temperature;BME280_humidity;BME280_pressure;Samples;Min_cycle;Max_cycle;Signal;HPM_P1;HPM_P2
2022/10/25 00:00:21;;;;;;;23.93;9.13;;;11.90;99.90;;;;;;5024731;28;20512;-72
2022/10/25 00:02:46;;;;;;;24.13;9.27;;;11.90;99.90;;;;;;5022344;28;20147;-72
2022/10/25 00:05:15;;;;;;;26.97;9.67;;;11.90;99.90;;;;;;5019769;28;20048;-72
2022/10/25 00:07:41;;;;;;;22.13;9.73;;;11.90;99.90;;;;;;5031752;28;20079;-72
2022/10/25 00:10:08;;;;;;;23.03;9.83;;;12.00;99.90;;;;;;5020579;28;20354;-72
2022/10/25 00:12:39;;;;;;;21.67;9.43;;;12.00;99.90;;;;;;5032123;28;20049;-72
2022/10/25 00:15:05;;;;;;;20.40;9.33;;;12.00;99.90;;;;;;5037215;28;20862;-72
2022/10/25 00:17:31;;;;;;;20.90;10.03;;;12.00;99.90;;;;;;5020498;28;20298;-72
2022/10/25 00:19:56;;;;;;;23.57;10.40;;;11.90;99.90;;;;;;5023150;28;20391;-72
2022/10/25 00:22:22;;;;;;;24.70;9.23;;;11.90;99.90;;;;;;5038294;28;20099;-72
2022/10/25 00:24:47;;;;;;;24.47;10.13;;;11.90;99.90;;;;;;5038576;28;20126;-72
2022/10/25 00:27:13;;;;;;;26.13;9.63;;;11.90;99.90;;;;;;5037393;28;20520;-72
2022/10/25 00:29:40;;;;;;;27.20;10.20;;;11.90;99.90;;;;;;5035629;28;20119;-72
2022/10/25 00:32:05;;;;;;;25.93;10.20;;;11.90;99.90;;;;;;5033941;28;20519;-72
2022/10/25 00:34:31;;;;;;;25.00;11.00;;;11.90;99.90;;;;;;5015296;28;20585;-72
2022/10/25 00:36:57;;;;;;;24.43;10.00;;;12.00;99.90;;;;;;5004371;28;20406;-72
2022/10/25 00:39:22;;;;;;;27.23;10.10;;;12.00;99.90;;;;;;5016114;28;20045;-72
2022/10/25 00:41:48;;;;;;;22.27;9.63;;;12.00;99.90;;;;;;5033830;28;20061;-72
2022/10/25 00:44:44;;;;;;;25.77;10.00;;;12.00;99.90;;;;;;5015096;28;20036;-72
2022/10/25 00:47:17;;;;;;;26.15;9.57;;;12.00;99.90;;;;;;5033101;28;20060;-72
2022/10/25 00:49:46;;;;;;;22.40;9.67;;;12.10;99.90;;;;;;5015181;28;20077;-72
2022/10/25 00:52:12;;;;;;;25.73;10.63;;;12.10;99.90;;;;;;5031022;28;20302;-72
2022/10/25 00:54:44;;;;;;;25.10;10.20;;;12.10;99.90;;;;;;5029828;28;20300;-72
2022/10/25 00:57:24;;;;;;;24.60;9.90;;;12.10;99.90;;;;;;5026589;28;20297;-72
2022/10/25 00:59:50;;;;;;;20.73;9.63;;;12.10;99.90;;;;;;5024785;28;20300;-72
2022/10/25 01:02:18;;;;;;;24.13;8.90;;;12.10;99.90;;;;;;4998514;28;20296;-72
2022/10/25 01:04:45;;;;;;;17.47;9.00;;;12.20;99.90;;;;;;5047815;28;20426;-72
2022/10/25 01:07:11;;;;;;;20.67;9.23;;;12.20;99.90;;;;;;5015515;28;20315;-72
2022/10/25 01:09:38;;;;;;;26.57;9.60;;;12.20;99.90;;;;;;5014401;28;20328;-72
2022/10/25 01:12:04;;;;;;;23.20;9.10;;;12.20;99.90;;;;;;5032239;28;20314;-72
2022/10/25 01:14:33;;;;;;;20.73;8.20;;;12.20;99.90;;;;;;5016181;28;20299;-72
2022/10/25 01:17:33;;;;;;;24.60;8.73;;;12.30;99.90;;;;;;5017238;28;20288;-72
2022/10/25 01:20:27;;;;;;;17.23;7.67;;;12.40;99.90;;;;;;5047765;28;20350;-72
2022/10/25 01:23:16;;;;;;;18.73;8.17;;;12.50;99.90;;;;;;5024169;28;20300;-72
2022/10/25 01:26:07;;;;;;;20.07;7.10;;;12.50;99.90;;;;;;5027994;28;20295;-72
2022/10/25 01:28:48;;;;;;;21.30;7.37;;;12.50;99.90;;;;;;5046400;28;20308;-72
2022/10/25 01:31:25;;;;;;;17.27;6.83;;;12.50;99.90;;;;;;5014883;28;20284;-72
2022/10/25 01:34:10;;;;;;;18.37;6.93;;;12.50;99.90;;;;;;5017364;28;20355;-72
2022/10/25 01:36:57;;;;;;;18.53;7.07;;;12.50;99.90;;;;;;5030387;28;20297;-72
2022/10/25 01:39:25;;;;;;;14.20;6.80;;;12.50;99.90;;;;;;5028494;28;20691;-72
2022/10/25 01:42:34;;;;;;;13.67;6.27;;;12.50;99.90;;;;;;5030831;28;20279;-72
2022/10/25 01:45:23;;;;;;;16.27;6.50;;;12.50;99.90;;;;;;5011175;28;20813;-72
2022/10/25 01:47:53;;;;;;;17.20;7.43;;;12.50;99.90;;;;;;5028384;28;20292;-72
2022/10/25 01:50:26;;;;;;;17.07;6.23;;;12.40;99.90;;;;;;5032707;28;20515;-72
2022/10/25 01:52:52;;;;;;;15.30;6.90;;;12.40;99.90;;;;;;5035414;28;20362;-72
2022/10/25 01:55:20;;;;;;;16.87;6.60;;;12.40;99.90;;;;;;5025348;28;20296;-72
2022/10/25 01:57:54;;;;;;;18.97;6.50;;;12.30;99.90;;;;;;5042275;28;20046;-72
2022/10/25 02:00:22;;;;;;;17.35;7.00;;;12.30;99.90;;;;;;5028542;28;20783;-72
2022/10/25 02:03:17;;;;;;;18.93;6.83;;;12.30;99.90;;;;;;4999362;28;20133;-72
2022/10/25 02:05:51;;;;;;;17.77;6.57;;;12.30;99.90;;;;;;5034362;28;20648;-72
2022/10/25 02:08:25;;;;;;;24.85;7.70;;;12.30;99.90;;;;;;5014898;28;20284;-72
2022/10/25 02:11:08;;;;;;;18.33;7.20;;;12.40;99.90;;;;;;5048777;28;20076;-72
2022/10/25 02:14:03;;;;;;;16.03;6.50;;;12.40;99.90;;;;;;5031134;28;20280;-72
2022/10/25 02:16:51;;;;;;;19.20;6.75;;;12.40;99.90;;;;;;5034575;28;20390;-72
2022/10/25 02:19:26;;;;;;;21.27;7.00;;;12.40;99.90;;;;;;5049442;28;20046;-72
2022/10/25 02:21:52;;;;;;;;;;;12.40;99.90;;;;;;5020671;28;20284;-72
2022/10/25 02:24:22;;;;;;;25.13;6.60;;;12.40;99.90;;;;;;4997315;28;19921;-72
2022/10/25 02:26:49;;;;;;;15.13;6.57;;;12.40;99.90;;;;;;5030681;28;20366;-72
2022/10/25 02:29:17;;;;;;;20.50;7.13;;;12.40;99.90;;;;;;5012973;28;20296;-72
2022/10/25 02:31:43;;;;;;;16.57;5.80;;;12.40;99.90;;;;;;5013775;28;20288;-72
2022/10/25 02:34:09;;;;;;;20.40;6.67;;;12.40;99.90;;;;;;5000272;28;20299;-72
2022/10/25 02:36:35;;;;;;;19.83;6.50;;;12.50;99.90;;;;;;5016905;28;20382;-72
2022/10/25 02:39:02;;;;;;;24.50;6.73;;;12.50;99.90;;;;;;4996338;28;20043;-72
2022/10/25 02:41:27;;;;;;;20.20;6.80;;;12.50;99.90;;;;;;5012789;28;20384;-72
2022/10/25 02:43:53;;;;;;;21.93;6.80;;;12.50;99.90;;;;;;5013272;28;20392;-72
2022/10/25 02:46:21;;;;;;;19.50;5.40;;;12.50;99.90;;;;;;5028688;28;20037;-72
2022/10/25 02:48:47;;;;;;;20.23;6.77;;;12.50;99.90;;;;;;5028985;28;20465;-72
2022/10/25 02:51:14;;;;;;;23.67;6.17;;;12.50;99.90;;;;;;5028383;28;20300;-72
2022/10/25 02:53:40;;;;;;;19.30;5.63;;;12.40;99.90;;;;;;5028890;28;20288;-72
2022/10/25 02:56:09;;;;;;;18.93;5.70;;;12.40;99.90;;;;;;5009138;28;20307;-72
2022/10/25 02:58:37;;;;;;;24.50;5.70;;;12.40;99.90;;;;;;5027276;28;20049;-72
2022/10/25 03:01:03;;;;;;;21.63;5.53;;;12.30;99.90;;;;;;5011892;28;20850;-72
2022/10/25 03:03:29;;;;;;;20.33;4.67;;;12.30;99.90;;;;;;4994911;28;20504;-72
2022/10/25 03:05:56;;;;;;;19.53;4.60;;;12.20;99.90;;;;;;5026757;28;20333;-72
2022/10/25 03:08:22;;;;;;;23.80;5.03;;;12.20;99.90;;;;;;5025660;28;20288;-72
2022/10/25 03:10:48;;;;;;;19.63;4.10;;;12.10;99.90;;;;;;5010295;28;20284;-72
2022/10/25 03:13:14;;;;;;;19.30;4.07;;;12.10;99.90;;;;;;5010489;28;20683;-72
2022/10/25 03:15:40;;;;;;;17.53;4.10;;;12.10;99.90;;;;;;4994481;28;20046;-72
2022/10/25 03:18:06;;;;;;;17.43;4.20;;;12.10;99.90;;;;;;5010493;28;20323;-72
2022/10/25 03:20:32;;;;;;;21.93;4.43;;;12.10;99.90;;;;;;5010275;28;20713;-72
2022/10/25 03:22:57;;;;;;;15.63;4.27;;;12.10;99.90;;;;;;5010049;28;20033;-72
2022/10/25 03:25:23;;;;;;;14.60;3.30;;;12.10;99.90;;;;;;5040821;28;20045;-72
2022/10/25 03:27:49;;;;;;;15.47;3.57;;;12.00;99.90;;;;;;5009179;28;20051;-72
2022/10/25 03:30:15;;;;;;;19.70;3.90;;;12.00;99.90;;;;;;5010641;28;20199;-72
2022/10/25 03:32:41;;;;;;;21.43;3.37;;;12.00;99.90;;;;;;5011089;28;20050;-72
2022/10/25 03:35:07;;;;;;;16.57;3.60;;;12.00;99.90;;;;;;5029986;28;20310;-72
2022/10/25 03:37:33;;;;;;;25.80;4.30;;;12.00;99.90;;;;;;5009250;28;20050;-72
2022/10/25 03:39:59;;;;;;;16.87;3.93;;;12.00;99.90;;;;;;5042856;28;20686;-72
2022/10/25 03:42:24;;;;;;;23.30;3.73;;;11.90;99.90;;;;;;5027655;28;20489;-72
2022/10/25 03:44:50;;;;;;;18.47;2.67;;;11.90;99.90;;;;;;5028853;28;20485;-72
2022/10/25 03:47:16;;;;;;;19.87;2.70;;;11.90;99.90;;;;;;5026851;28;20040;-72
2022/10/25 03:49:42;;;;;;;25.07;2.97;;;11.80;99.90;;;;;;5010536;28;20049;-72
2022/10/25 03:52:08;;;;;;;17.47;3.17;;;11.80;99.90;;;;;;5011032;28;20280;-72
2022/10/25 03:54:34;;;;;;;17.00;2.63;;;11.80;99.90;;;;;;5009568;28;20355;-72
2022/10/25 03:57:00;;;;;;;21.93;2.83;;;11.70;99.90;;;;;;5012622;28;20783;-72
2022/10/25 03:59:26;;;;;;;23.47;3.30;;;11.70;99.90;;;;;;5032625;28;20043;-72
2022/10/25 04:01:52;;;;;;;17.17;2.90;;;11.70;99.90;;;;;;5032341;28;20292;-72
2022/10/25 04:04:18;;;;;;;13.57;3.13;;;11.70;99.90;;;;;;5032616;28;20352;-72
2022/10/25 04:06:44;;;;;;;18.00;3.40;;;11.70;99.90;;;;;;5016447;28;20367;-72
2022/10/25 04:09:10;;;;;;;19.60;3.10;;;11.60;99.90;;;;;;5031397;28;20053;-72
2022/10/25 04:11:36;;;;;;;20.67;3.60;;;11.60;99.90;;;;;;5011817;28;20048;-72
2022/10/25 04:14:01;;;;;;;19.43;2.80;;;11.60;99.90;;;;;;5040602;28;20452;-72
2022/10/25 04:16:27;;;;;;;19.37;3.23;;;11.60;99.90;;;;;;5045377;28;20048;-72
2022/10/25 04:18:53;;;;;;;22.63;3.80;;;11.60;99.90;;;;;;5029297;28;20053;-72
2022/10/25 04:21:20;;;;;;;18.87;3.83;;;11.60;99.90;;;;;;5046340;28;20044;-72
2022/10/25 04:23:46;;;;;;;18.97;4.03;;;11.60;99.90;;;;;;5047757;28;20052;-72
2022/10/25 04:26:17;;;;;;;15.97;2.83;;;11.60;99.90;;;;;;5018895;28;20316;-72
2022/10/25 04:28:43;;;;;;;19.27;3.37;;;11.50;99.90;;;;;;5031714;28;20576;-72
2022/10/25 04:31:09;;;;;;;18.00;3.53;;;11.50;99.90;;;;;;5035471;28;20284;-72
2022/10/25 04:33:35;;;;;;;26.23;3.33;;;11.50;99.90;;;;;;5029898;28;20838;-72
2022/10/25 04:36:00;;;;;;;15.90;3.33;;;11.50;99.90;;;;;;5031301;28;20076;-72
2022/10/25 04:38:26;;;;;;;20.27;3.60;;;11.40;99.90;;;;;;5031785;28;20511;-72
2022/10/25 04:40:57;;;;;;;18.73;3.00;;;11.40;99.90;;;;;;5029773;28;20037;-72
2022/10/25 04:43:24;;;;;;;16.40;2.87;;;11.40;99.90;;;;;;5028847;28;20324;-72
2022/10/25 04:45:50;;;;;;;19.10;3.33;;;11.40;99.90;;;;;;5029196;28;20287;-72
2022/10/25 04:48:16;;;;;;;20.23;2.90;;;11.30;99.90;;;;;;5013034;28;20715;-72
2022/10/25 04:50:42;;;;;;;15.90;2.60;;;11.30;99.90;;;;;;5013749;28;20433;-72
2022/10/25 04:53:07;;;;;;;18.83;3.27;;;11.30;99.90;;;;;;5032543;28;20403;-72
2022/10/25 04:55:33;;;;;;;18.57;2.73;;;11.30;99.90;;;;;;5015635;28;20049;-72
2022/10/25 04:57:59;;;;;;;14.37;2.83;;;11.20;99.90;;;;;;5030580;28;20451;-72
2022/10/25 05:00:25;;;;;;;19.30;3.00;;;11.20;99.90;;;;;;5036980;28;20106;-72
2022/10/25 05:02:52;;;;;;;17.70;3.67;;;11.20;99.90;;;;;;5032818;28;20053;-72
2022/10/25 05:05:18;;;;;;;21.60;3.53;;;11.20;99.90;;;;;;5015903;28;20295;-71
2022/10/25 05:07:44;;;;;;;19.57;3.07;;;11.10;99.90;;;;;;5030273;28;20338;-72
2022/10/25 05:10:10;;;;;;;16.17;2.70;;;11.20;99.90;;;;;;5014824;28;20795;-72
2022/10/25 05:12:36;;;;;;;17.30;2.90;;;11.20;99.90;;;;;;5032218;28;20412;-72
2022/10/25 05:15:03;;;;;;;17.83;3.17;;;11.20;99.90;;;;;;5030293;28;20334;-72
2022/10/25 05:17:28;;;;;;;18.00;3.37;;;11.10;99.90;;;;;;5030338;28;20288;-72
2022/10/25 05:19:54;;;;;;;20.43;3.80;;;11.10;99.90;;;;;;5031014;28;20809;-72
2022/10/25 05:22:20;;;;;;;16.03;3.33;;;11.10;99.90;;;;;;4997918;28;20477;-72
2022/10/25 05:24:46;;;;;;;14.93;3.00;;;11.00;99.90;;;;;;5014005;28;20124;-72
2022/10/25 05:27:11;;;;;;;19.27;3.13;;;11.00;99.90;;;;;;5012547;28;20060;-72
2022/10/25 05:29:37;;;;;;;19.20;3.50;;;11.00;99.90;;;;;;5029934;28;20075;-72
2022/10/25 05:32:03;;;;;;;24.70;4.40;;;11.00;99.90;;;;;;5012847;28;20042;-72
2022/10/25 05:34:28;;;;;;;29.33;4.63;;;11.00;99.90;;;;;;5027797;28;20037;-72
2022/10/25 05:36:54;;;;;;;20.63;4.33;;;11.00;99.90;;;;;;5018835;28;20080;-72
2022/10/25 05:39:20;;;;;;;19.47;4.50;;;11.00;99.90;;;;;;5029548;28;20044;-72
2022/10/25 05:41:46;;;;;;;21.53;4.83;;;11.10;99.90;;;;;;4997081;28;20037;-72
2022/10/25 05:44:11;;;;;;;22.97;4.17;;;11.10;99.90;;;;;;5010993;28;20047;-72
2022/10/25 05:46:37;;;;;;;24.20;4.03;;;11.10;99.90;;;;;;5030125;28;20049;-72
2022/10/25 05:49:03;;;;;;;21.53;4.43;;;11.20;99.90;;;;;;5029277;28;20115;-72
2022/10/25 05:51:31;;;;;;;14.67;3.73;;;11.20;99.90;;;;;;5015583;28;20561;-72
2022/10/25 05:54:06;;;;;;;20.40;3.47;;;11.20;99.90;;;;;;5028776;28;20798;-72
2022/10/25 05:56:32;;;;;;;19.85;3.78;;;11.10;99.90;;;;;;5011527;28;20307;-72
2022/10/25 05:59:08;;;;;;;24.63;4.07;;;11.10;99.90;;;;;;5032519;28;20128;-72
2022/10/25 06:01:35;;;;;;;22.40;3.33;;;11.20;99.90;;;;;;5032484;28;20303;-72
2022/10/25 06:04:01;;;;;;;18.73;3.13;;;11.20;99.90;;;;;;5035374;28;20635;-72
2022/10/25 06:06:27;;;;;;;16.37;3.63;;;11.20;99.90;;;;;;4993755;28;20284;-72
2022/10/25 06:08:57;;;;;;;20.93;3.63;;;11.20;99.90;;;;;;5019174;28;20079;-72
2022/10/25 06:11:23;;;;;;;22.23;3.27;;;11.20;99.90;;;;;;5028967;28;20054;-72
2022/10/25 06:13:49;;;;;;;22.43;3.90;;;11.20;99.90;;;;;;5020061;28;20291;-72
2022/10/25 06:16:17;;;;;;;23.23;4.20;;;11.20;99.90;;;;;;5031546;28;20877;-72
2022/10/25 06:18:43;;;;;;;19.73;3.70;;;11.20;99.90;;;;;;5012045;28;20308;-72
2022/10/25 06:21:20;;;;;;;19.77;3.00;;;11.20;99.90;;;;;;5027286;28;20712;-72
2022/10/25 06:23:47;;;;;;;18.17;4.20;;;11.20;99.90;;;;;;5024654;28;20288;-72
2022/10/25 06:26:20;;;;;;;25.33;3.97;;;11.20;99.90;;;;;;5027336;28;20288;-72
2022/10/25 06:28:46;;;;;;;13.83;3.73;;;11.20;99.90;;;;;;5032577;28;20371;-72
2022/10/25 06:31:17;;;;;;;20.17;3.60;;;11.20;99.90;;;;;;5013623;28;20296;-72
2022/10/25 06:33:44;;;;;;;26.17;3.77;;;11.20;99.90;;;;;;5031077;28;20635;-72
2022/10/25 06:36:15;;;;;;;15.77;3.33;;;11.10;99.90;;;;;;5030984;28;20288;-72
2022/10/25 06:38:42;;;;;;;18.37;3.53;;;11.10;99.90;;;;;;5028039;28;20280;-72
2022/10/25 06:41:18;;;;;;;22.13;3.80;;;11.00;99.90;;;;;;5034793;28;20283;-72
2022/10/25 06:43:44;;;;;;;21.03;3.50;;;11.00;99.90;;;;;;5035507;28;20687;-72
2022/10/25 06:46:20;;;;;;;19.20;3.23;;;11.00;99.90;;;;;;5032623;28;20290;-72
2022/10/25 06:48:46;;;;;;;18.77;3.73;;;11.00;99.90;;;;;;5030860;28;20042;-72
2022/10/25 06:51:11;;;;;;;16.67;3.27;;;10.90;99.90;;;;;;5032175;28;20338;-72
2022/10/25 06:53:37;;;;;;;15.37;2.97;;;11.00;99.90;;;;;;5030839;28;20044;-72
2022/10/25 06:56:06;;;;;;;21.17;4.07;;;11.00;99.90;;;;;;5034273;28;20048;-72
2022/10/25 06:58:32;;;;;;;20.43;3.20;;;11.00;99.90;;;;;;5033517;28;20288;-72
2022/10/25 07:01:07;;;;;;;16.70;3.63;;;11.00;99.90;;;;;;5026989;28;20975;-72
2022/10/25 07:03:36;;;;;;;15.88;3.15;;;11.00;99.90;;;;;;5034596;28;20468;-72
2022/10/25 07:06:08;;;;;;;23.63;3.90;;;11.10;99.90;;;;;;5015592;28;20045;-72
2022/10/25 07:08:35;;;;;;;12.90;3.50;;;11.10;99.90;;;;;;5035819;28;20284;-72
2022/10/25 07:11:02;;;;;;;19.63;3.83;;;11.10;99.90;;;;;;5033582;28;20280;-72
2022/10/25 07:13:30;;;;;;;18.97;3.57;;;11.10;99.90;;;;;;4993826;28;20279;-72
2022/10/25 07:16:13;;;;;;;15.77;3.93;;;11.20;99.90;;;;;;5019709;28;20306;-72
2022/10/25 07:18:39;;;;;;;16.10;3.37;;;11.20;99.90;;;;;;5033971;28;20302;-72
2022/10/25 07:21:07;;;;;;;26.23;4.40;;;11.20;99.90;;;;;;5031270;28;20718;-72
2022/10/25 07:23:34;;;;;;;17.10;3.10;;;11.30;99.90;;;;;;5031878;28;20160;-72
2022/10/25 07:25:59;;;;;;;19.03;4.10;;;11.30;99.90;;;;;;5011377;28;20362;-72
2022/10/25 07:28:26;;;;;;;17.67;3.30;;;11.30;99.90;;;;;;5026837;28;20292;-72
2022/10/25 07:30:51;;;;;;;15.20;3.40;;;11.40;99.90;;;;;;5029091;28;20055;-72
2022/10/25 07:33:19;;;;;;;17.43;3.57;;;11.40;99.90;;;;;;5017807;28;20277;-72
2022/10/25 07:35:49;;;;;;;21.50;3.13;;;11.50;99.90;;;;;;5014821;28;20099;-72
2022/10/25 07:38:15;;;;;;;17.23;3.07;;;11.50;99.90;;;;;;5031135;28;20288;-72
2022/10/25 07:40:41;;;;;;;17.83;3.47;;;11.60;99.90;;;;;;5009267;28;20293;-72
2022/10/25 07:43:07;;;;;;;12.43;2.57;;;11.70;99.90;;;;;;5045252;28;20277;-73
2022/10/25 07:45:33;;;;;;;20.00;3.20;;;11.70;99.90;;;;;;5031147;28;20130;-72
2022/10/25 07:47:59;;;;;;;21.70;3.40;;;11.90;99.90;;;;;;5030077;28;20323;-72
2022/10/25 07:50:24;;;;;;;21.30;3.23;;;11.90;99.90;;;;;;5032677;28;20187;-72
2022/10/25 07:52:50;;;;;;;16.37;2.90;;;12.00;99.90;;;;;;5015452;28;20320;-72
2022/10/25 07:55:16;;;;;;;17.10;3.40;;;12.10;99.90;;;;;;5035111;28;20500;-72
2022/10/25 07:57:42;;;;;;;17.20;3.37;;;12.20;99.90;;;;;;5031152;28;20041;-72
2022/10/25 08:00:09;;;;;;;22.97;3.37;;;12.20;99.90;;;;;;5015658;28;20056;-72
2022/10/25 08:02:34;;;;;;;21.87;3.83;;;12.40;99.90;;;;;;5019692;28;20050;-72
2022/10/25 08:05:00;;;;;;;15.63;2.83;;;12.50;99.90;;;;;;5033387;28;20290;-72
2022/10/25 08:07:27;;;;;;;19.63;3.73;;;12.70;99.90;;;;;;5019788;28;20504;-72
2022/10/25 08:09:53;;;;;;;17.30;3.40;;;12.80;99.90;;;;;;5017788;28;20155;-72
2022/10/25 08:12:18;;;;;;;13.23;3.17;;;13.00;99.90;;;;;;5018962;28;20806;-72
2022/10/25 08:14:44;;;;;;;21.47;3.30;;;13.10;99.90;;;;;;5016630;28;20040;-73
2022/10/25 08:17:10;;;;;;;12.40;2.63;;;13.00;99.90;;;;;;5035894;28;20141;-72
2022/10/25 08:19:36;;;;;;;20.90;3.53;;;13.00;99.90;;;;;;5037436;28;20042;-71
2022/10/25 08:22:02;;;;;;;12.70;3.20;;;13.00;99.90;;;;;;5037286;28;20045;-71
2022/10/25 08:24:27;;;;;;;17.97;3.40;;;13.00;99.90;;;;;;5018622;28;20045;-71
2022/10/25 08:26:53;;;;;;;17.20;3.80;;;13.00;99.90;;;;;;5037033;28;20299;-71
2022/10/25 08:29:19;;;;;;;15.33;4.20;;;13.00;99.90;;;;;;5019154;28;20041;-71
2022/10/25 08:31:44;;;;;;;20.60;4.33;;;13.10;99.90;;;;;;5019711;28;20099;-71
2022/10/25 08:34:10;;;;;;;18.23;4.13;;;13.10;99.90;;;;;;5000748;28;20108;-71
2022/10/25 08:36:36;;;;;;;18.07;4.57;;;13.20;99.90;;;;;;5017687;28;20048;-71
2022/10/25 08:39:02;;;;;;;19.23;5.20;;;13.30;99.90;;;;;;5040314;28;20156;-71
2022/10/25 08:41:41;;;;;;;19.33;4.00;;;13.30;99.90;;;;;;5025092;28;20522;-71
2022/10/25 08:44:16;;;;;;;14.63;3.70;;;13.40;99.90;;;;;;5040483;28;20276;-71
2022/10/25 08:46:52;;;;;;;17.73;3.95;;;13.40;99.90;;;;;;5042900;28;20284;-71
2022/10/25 08:49:25;;;;;;;14.37;3.00;;;13.50;99.90;;;;;;5038655;28;20041;-71
2022/10/25 08:51:52;;;;;;;14.33;2.90;;;13.60;99.90;;;;;;5029052;28;20656;-71
2022/10/25 08:54:38;;;;;;;14.00;3.00;;;13.60;99.90;;;;;;5053374;28;20275;-71
2022/10/25 08:57:37;;;;;;;16.48;2.38;;;13.70;99.90;;;;;;5043389;28;20383;-71
2022/10/25 09:00:13;;;;;;;14.70;2.27;;;13.70;99.90;;;;;;5032665;28;20045;-71
2022/10/25 09:02:46;;;;;;;13.50;2.10;;;13.80;99.90;;;;;;5029336;28;20315;-71
2022/10/25 09:05:21;;;;;;;18.53;2.37;;;13.80;99.90;;;;;;5037834;28;20284;-71
2022/10/25 09:08:06;;;;;;;15.70;2.45;;;13.90;99.90;;;;;;5043831;28;20284;-71
2022/10/25 09:10:32;;;;;;;15.32;2.55;;;13.90;99.90;;;;;;5028549;28;20048;-71
2022/10/25 09:13:19;;;;;;;14.13;2.53;;;13.90;99.90;;;;;;5042818;28;20077;-71
2022/10/25 09:16:00;;;;;;;15.37;2.40;;;14.00;99.90;;;;;;5043748;28;20038;-71
2022/10/25 09:18:56;;;;;;;12.27;2.00;;;14.10;99.90;;;;;;5029750;28;20290;-71
2022/10/25 09:21:44;;;;;;;10.15;2.25;;;14.10;99.90;;;;;;5042528;28;20276;-71
2022/10/25 09:24:21;;;;;;;12.27;2.37;;;14.10;99.90;;;;;;5025113;28;20041;-71
2022/10/25 09:26:50;;;;;;;10.67;1.77;;;14.10;99.90;;;;;;5044507;28;20716;-71
2022/10/25 09:29:36;;;;;;;11.30;2.07;;;14.10;99.90;;;;;;5041488;28;20268;-71
2022/10/25 09:32:10;;;;;;;14.07;2.97;;;14.10;99.90;;;;;;5023386;28;20319;-71
2022/10/25 09:34:36;;;;;;;18.33;2.50;;;14.10;99.90;;;;;;5039505;28;20276;-71
2022/10/25 09:37:24;;;;;;;14.33;2.10;;;14.20;99.90;;;;;;5042501;28;20293;-71
2022/10/25 09:39:53;;;;;;;12.23;2.30;;;14.20;99.90;;;;;;5040631;28;20314;-71
2022/10/25 09:42:33;;;;;;;10.97;2.33;;;14.30;99.90;;;;;;5045560;28;20287;-71
2022/10/25 09:45:07;;;;;;;12.80;2.30;;;14.30;99.90;;;;;;5026586;28;20295;-71
2022/10/25 09:48:06;;;;;;;17.65;2.95;;;14.30;99.90;;;;;;5043763;28;20292;-71
2022/10/25 09:50:39;;;;;;;12.53;2.70;;;14.30;99.90;;;;;;5028536;28;20052;-69
2022/10/25 09:53:14;;;;;;;14.23;3.03;;;14.20;99.90;;;;;;5008762;28;20291;-69
2022/10/25 09:56:02;;;;;;;14.35;3.90;;;14.10;99.90;;;;;;5024770;28;20295;-70
2022/10/25 09:58:34;;;;;;;14.37;3.77;;;14.10;99.90;;;;;;5037361;28;20049;-71
2022/10/25 10:01:11;;;;;;;12.90;3.07;;;14.20;99.90;;;;;;5040799;28;20629;-71
2022/10/25 10:03:37;;;;;;;15.83;3.83;;;14.20;99.90;;;;;;5023789;28;20297;-71
2022/10/25 10:06:32;;;;;;;15.43;3.40;;;14.30;99.90;;;;;;5055832;28;20713;-71
2022/10/25 10:09:06;;;;;;;15.80;4.25;;;14.50;99.90;;;;;;5037801;28;20233;-71
2022/10/25 10:11:33;;;;;;;15.43;3.90;;;14.50;99.90;;;;;;5038462;28;20132;-71
2022/10/25 10:14:02;;;;;;;14.10;4.87;;;14.60;99.90;;;;;;5029788;28;20352;-71
2022/10/25 10:16:37;;;;;;;16.87;5.13;;;14.60;99.90;;;;;;5034256;28;20375;-71
2022/10/25 10:19:20;;;;;;;11.13;4.70;;;14.60;99.90;;;;;;5031690;28;20780;-71
2022/10/25 10:21:52;;;;;;;18.57;5.03;;;14.70;99.90;;;;;;5017043;28;20276;-71
2022/10/25 10:24:34;;;;;;;20.53;7.30;;;14.70;99.90;;;;;;5030288;28;20280;-71
2022/10/25 10:27:10;;;;;;;18.20;6.37;;;14.70;99.90;;;;;;5028509;28;20307;-71
2022/10/25 10:30:06;;;;;;;16.07;6.37;;;14.70;99.90;;;;;;5037400;28;20345;-71
2022/10/25 10:32:39;;;;;;;19.95;6.63;;;14.70;99.90;;;;;;5024914;28;20280;-71
2022/10/25 10:35:23;;;;;;;17.23;6.77;;;14.80;99.90;;;;;;5033440;28;20075;-71
2022/10/25 10:37:48;;;;;;;20.10;7.27;;;14.90;99.90;;;;;;5035162;28;20283;-71
2022/10/25 10:40:17;;;;;;;22.73;7.87;;;14.90;99.90;;;;;;5031620;28;20639;-71
2022/10/25 10:42:43;;;;;;;19.13;7.73;;;15.10;99.90;;;;;;5016106;28;20037;-71
2022/10/25 10:45:14;;;;;;;18.50;7.90;;;15.30;99.90;;;;;;5014223;28;20287;-71
2022/10/25 10:47:49;;;;;;;18.40;6.00;;;15.40;99.90;;;;;;5028602;28;20053;-71
2022/10/25 10:50:24;;;;;;;14.27;5.60;;;15.60;99.90;;;;;;5026965;28;20290;-71
2022/10/25 10:53:20;;;;;;;19.80;5.80;;;15.70;99.90;;;;;;5026068;28;20060;-71
2022/10/25 10:55:51;;;;;;;14.63;5.57;;;15.80;99.90;;;;;;5027625;28;20410;-71
2022/10/25 10:58:24;;;;;;;12.87;5.40;;;16.00;99.90;;;;;;5018277;28;20343;-71
2022/10/25 11:01:00;;;;;;;11.93;5.00;;;16.10;99.90;;;;;;5026311;28;20823;-71
2022/10/25 11:03:39;;;;;;;13.87;6.50;;;16.30;99.90;;;;;;5025309;28;20296;-72
2022/10/25 11:06:12;;;;;;;18.47;9.27;;;16.50;99.90;;;;;;5034490;28;20299;-72
2022/10/25 11:08:39;;;;;;;17.70;8.53;;;16.60;99.90;;;;;;5026453;28;20292;-72
2022/10/25 11:11:11;;;;;;;12.00;7.40;;;16.60;99.90;;;;;;5012641;28;20644;-72
2022/10/25 11:13:37;;;;;;;13.77;7.17;;;16.60;99.90;;;;;;5030407;28;20760;-72
2022/10/25 11:16:28;;;;;;;14.67;5.77;;;16.70;99.90;;;;;;5013521;28;20304;-72
2022/10/25 11:19:13;;;;;;;15.37;6.53;;;16.80;99.90;;;;;;5029319;28;20048;-72
2022/10/25 11:21:59;;;;;;;16.33;6.13;;;16.80;99.90;;;;;;5025781;28;20320;-72
2022/10/25 11:25:12;;;;;;;16.47;6.47;;;16.80;99.90;;;;;;5025028;28;20660;-72
2022/10/25 11:27:49;;;;;;;13.20;6.40;;;16.70;99.90;;;;;;4999317;28;20374;-72
2022/10/25 11:30:18;;;;;;;13.13;5.90;;;16.50;99.90;;;;;;5025924;28;20284;-72
2022/10/25 11:33:31;;;;;;;14.20;4.87;;;16.50;99.90;;;;;;5011151;28;20292;-72
2022/10/25 11:36:05;;;;;;;14.60;6.13;;;16.40;99.90;;;;;;4983537;28;20394;-71
2022/10/25 11:38:54;;;;;;;12.50;5.35;;;16.50;99.90;;;;;;5012262;28;20322;-72
2022/10/25 11:41:38;;;;;;;10.90;5.77;;;16.50;99.90;;;;;;5025755;28;20274;-72
2022/10/25 11:44:21;;;;;;;14.60;5.93;;;16.50;99.90;;;;;;5028038;28;20338;-71
2022/10/25 11:46:56;;;;;;;11.00;6.07;;;16.40;99.90;;;;;;5028203;28;20276;-72
2022/10/25 11:49:46;;;;;;;15.45;6.80;;;16.30;99.90;;;;;;5025737;28;21047;-72
2022/10/25 11:52:36;;;;;;;13.53;7.07;;;16.30;99.90;;;;;;5028991;28;20033;-72
2022/10/25 11:55:09;;;;;;;11.70;6.27;;;16.40;99.90;;;;;;5012629;28;20315;-72
2022/10/25 11:57:56;;;;;;;15.43;6.60;;;16.40;99.90;;;;;;5028980;28;20048;-72
2022/10/25 12:00:34;;;;;;;13.83;6.07;;;16.40;99.90;;;;;;5011416;28;20300;-72
2022/10/25 12:03:37;;;;;;;12.33;5.20;;;16.30;99.90;;;;;;5029678;28;20825;-72
2022/10/25 12:06:30;;;;;;;12.03;6.50;;;16.20;99.90;;;;;;5012800;28;20310;-72
2022/10/25 12:09:14;;;;;;;14.37;6.23;;;16.20;99.90;;;;;;5032768;28;20280;-72
2022/10/25 12:11:47;;;;;;;13.80;6.13;;;16.40;99.90;;;;;;5029555;28;20288;-72
2022/10/25 12:14:22;;;;;;;11.47;5.73;;;16.50;99.90;;;;;;5015646;28;20312;-72
2022/10/25 12:16:49;;;;;;;16.00;5.90;;;16.50;99.90;;;;;;5028522;28;20909;-72
2022/10/25 12:19:26;;;;;;;11.87;6.27;;;16.40;99.90;;;;;;5010416;28;20288;-72
2022/10/25 12:22:03;;;;;;;16.13;7.00;;;16.40;99.90;;;;;;5027019;28;20790;-72
2022/10/25 12:24:45;;;;;;;13.10;5.97;;;16.40;99.90;;;;;;5013071;28;20313;-72
2022/10/25 12:27:15;;;;;;;15.57;5.83;;;16.40;99.90;;;;;;5012709;28;20329;-72
2022/10/25 12:29:44;;;;;;;13.63;7.27;;;16.30;99.90;;;;;;5036178;28;20772;-72
2022/10/25 12:32:24;;;;;;;12.00;6.33;;;16.40;99.90;;;;;;5027880;28;20287;-72
2022/10/25 12:34:56;;;;;;;12.70;5.97;;;16.50;99.90;;;;;;5015153;28;20395;-72
2022/10/25 12:37:25;;;;;;;11.57;6.90;;;16.60;99.90;;;;;;5029403;28;20284;-72
2022/10/25 12:39:51;;;;;;;11.10;6.17;;;16.70;99.90;;;;;;5031090;28;20675;-72
2022/10/25 12:42:25;;;;;;;15.83;6.03;;;16.70;99.90;;;;;;5031442;28;20288;-72
2022/10/25 12:45:18;;;;;;;14.97;6.83;;;16.70;99.90;;;;;;5043142;28;20563;-72
2022/10/25 12:47:55;;;;;;;10.93;7.13;;;16.60;99.90;;;;;;5018605;28;20276;-72
2022/10/25 12:50:36;;;;;;;12.43;7.90;;;16.30;99.90;;;;;;5027110;28;20645;-72
2022/10/25 12:53:45;;;;;;;14.17;8.30;;;16.30;99.90;;;;;;5028059;28;20668;-72
2022/10/25 12:56:14;;;;;;;13.93;8.27;;;16.40;99.90;;;;;;5026956;28;20340;-72
2022/10/25 12:59:00;;;;;;;15.20;8.80;;;16.50;99.90;;;;;;5026928;28;20294;-72